createdAt,value
2022-11-24T00:00:53.148Z,99.99
2022-11-24T00:01:53.194Z,99.99
2022-11-24T00:02:53.225Z,99.99
2022-11-24T00:03:53.140Z,99.99
2022-11-24T00:04:53.139Z,99.99
2022-11-24T00:05:53.125Z,99.99
2022-11-24T00:06:53.149Z,99.99
2022-11-24T00:07:53.157Z,99.99
2022-11-24T00:08:53.115Z,99.99
2022-11-24T00:09:53.101Z,99.99
2022-11-24T00:10:53.100Z,99.99
2022-11-24T00:11:53.087Z,99.99
2022-11-24T00:12:53.079Z,99.99
2022-11-24T00:13:53.069Z,99.99
2022-11-24T00:14:53.068Z,99.99
2022-11-24T00:15:53.053Z,99.99
2022-11-24T00:16:53.094Z,99.99
2022-11-24T00:17:53.040Z,99.99
2022-11-24T00:18:53.036Z,99.99
2022-11-24T00:19:53.016Z,99.99
2022-11-24T00:20:53.027Z,99.99
2022-11-24T00:21:53.044Z,99.99
2022-11-24T00:22:53.026Z,99.99
2022-11-24T00:23:52.993Z,99.99
2022-11-24T00:24:53.985Z,99.99
2022-11-24T00:25:53.994Z,99.99
2022-11-24T00:26:52.980Z,99.99
2022-11-24T00:27:53.000Z,99.99
2022-11-24T00:28:52.972Z,99.99
2022-11-24T00:29:52.959Z,99.99
2022-11-24T00:30:53.002Z,99.99
2022-11-24T00:31:52.959Z,99.99
2022-11-24T00:32:52.948Z,99.99
2022-11-24T00:33:52.940Z,99.99
2022-11-24T00:34:52.940Z,99.99
2022-11-24T00:35:52.932Z,99.99
2022-11-24T00:36:52.907Z,99.99
2022-11-24T00:37:52.907Z,99.99
2022-11-24T00:38:52.899Z,99.99
2022-11-24T00:39:53.056Z,99.87
2022-11-24T00:40:52.887Z,99.99
2022-11-24T00:41:52.864Z,99.99
2022-11-24T00:42:52.872Z,99.99
2022-11-24T00:43:52.863Z,99.99
2022-11-24T00:44:52.862Z,99.99
2022-11-24T00:45:53.012Z,99.99
2022-11-24T00:46:53.013Z,99.98
2022-11-24T00:47:52.832Z,99.99
2022-11-24T00:48:52.823Z,99.99
2022-11-24T00:49:52.839Z,99.99
2022-11-24T00:50:52.824Z,99.99
2022-11-24T00:51:52.804Z,99.99
2022-11-24T00:52:52.805Z,99.87
2022-11-24T00:53:52.796Z,99.56
2022-11-24T00:54:52.800Z,99.25
2022-11-24T00:55:52.784Z,99.99
2022-11-24T00:56:52.767Z,99.87
2022-11-24T00:57:52.769Z,99.31
2022-11-24T00:58:52.771Z,99.52
2022-11-24T00:59:52.750Z,99.93
2022-11-24T01:00:52.761Z,99.99
2022-11-24T01:01:52.782Z,99.41
2022-11-24T01:02:52.833Z,99.21
2022-11-24T01:03:52.716Z,99.21
2022-11-24T01:04:52.719Z,99.99
2022-11-24T01:05:52.732Z,99.10
2022-11-24T01:06:52.692Z,99.31
2022-11-24T01:07:52.719Z,99.62
2022-11-24T01:08:52.703Z,98.90
2022-11-24T01:09:52.683Z,99.62
2022-11-24T01:10:52.676Z,99.99
2022-11-24T01:11:52.688Z,99.99
2022-11-24T01:12:52.680Z,99.93
2022-11-24T01:13:52.663Z,99.93
2022-11-24T01:14:52.648Z,99.82
2022-11-24T01:15:52.687Z,99.00
2022-11-24T01:16:52.647Z,99.21
2022-11-24T01:17:52.632Z,99.21
2022-11-24T01:18:52.627Z,99.99
2022-11-24T01:19:52.623Z,98.90
2022-11-24T01:20:52.606Z,99.41
2022-11-24T01:21:52.603Z,98.96
2022-11-24T01:22:52.613Z,99.99
2022-11-24T01:23:52.586Z,99.99
2022-11-24T01:24:52.580Z,99.99
2022-11-24T01:25:52.575Z,99.99
2022-11-24T01:26:52.571Z,99.99
2022-11-24T01:27:52.591Z,99.88
2022-11-24T01:28:52.564Z,99.93
2022-11-24T01:29:52.568Z,99.88
2022-11-24T01:30:52.584Z,99.93
2022-11-24T01:31:52.542Z,99.52
2022-11-24T01:32:52.535Z,99.99
2022-11-24T01:33:52.552Z,99.99
2022-11-24T01:34:52.539Z,98.65
2022-11-24T01:35:52.519Z,99.06
2022-11-24T01:36:52.512Z,99.16
2022-11-24T01:37:52.507Z,99.16
2022-11-24T01:38:52.492Z,99.06
2022-11-24T01:39:52.495Z,98.85
2022-11-24T01:40:52.481Z,98.75
2022-11-24T01:41:52.464Z,98.65
2022-11-24T01:42:53.474Z,99.16
2022-11-24T01:43:52.478Z,98.69
2022-11-24T01:44:52.456Z,99.26
2022-11-24T01:45:52.476Z,99.37
2022-11-24T01:46:52.464Z,99.26
2022-11-24T01:47:52.436Z,99.26
2022-11-24T01:48:52.433Z,99.26
2022-11-24T01:49:52.424Z,99.06
2022-11-24T01:50:52.411Z,99.16
2022-11-24T01:51:52.411Z,99.57
2022-11-24T01:52:52.407Z,99.99
2022-11-24T01:53:52.408Z,99.99
2022-11-24T01:54:52.385Z,99.99
2022-11-24T01:55:52.376Z,99.99
2022-11-24T01:56:52.388Z,99.88
2022-11-24T01:57:52.367Z,99.99
2022-11-24T01:58:52.388Z,99.99
2022-11-24T01:59:52.351Z,99.99
2022-11-24T02:00:52.992Z,99.99
2022-11-24T02:01:52.366Z,99.99
2022-11-24T02:02:52.397Z,99.99
2022-11-24T02:03:52.322Z,99.99
2022-11-24T02:04:52.331Z,99.99
2022-11-24T02:05:52.311Z,99.99
2022-11-24T02:06:52.308Z,99.99
2022-11-24T02:07:52.346Z,99.99
2022-11-24T02:08:52.299Z,99.99
2022-11-24T02:09:52.279Z,99.99
2022-11-24T02:10:52.296Z,99.99
2022-11-24T02:11:52.275Z,99.99
2022-11-24T02:12:52.271Z,99.99
2022-11-24T02:13:52.254Z,99.99
2022-11-24T02:14:52.248Z,99.99
2022-11-24T02:15:52.262Z,99.99
2022-11-24T02:16:52.234Z,99.99
2022-11-24T02:17:52.251Z,99.99
2022-11-24T02:18:52.227Z,99.99
2022-11-24T02:19:52.221Z,99.99
2022-11-24T02:20:52.214Z,99.78
2022-11-24T02:21:52.210Z,99.99
2022-11-24T02:22:52.217Z,99.99
2022-11-24T02:23:52.195Z,99.88
2022-11-24T02:24:52.188Z,99.99
2022-11-24T02:25:52.180Z,99.88
2022-11-24T02:26:52.169Z,99.99
2022-11-24T02:27:54.087Z,99.99
2022-11-24T02:28:53.171Z,99.99
2022-11-24T02:29:52.161Z,99.99
2022-11-24T02:30:52.282Z,99.99
2022-11-24T02:31:52.144Z,99.99
2022-11-24T02:32:52.137Z,99.99
2022-11-24T02:33:52.153Z,99.99
2022-11-24T02:34:52.110Z,99.99
2022-11-24T02:35:52.119Z,99.99
2022-11-24T02:36:52.110Z,99.99
2022-11-24T02:37:52.102Z,99.99
2022-11-24T02:38:52.154Z,99.99
2022-11-24T02:39:52.086Z,99.99
2022-11-24T02:40:52.093Z,99.99
2022-11-24T02:41:52.081Z,99.88
2022-11-24T02:42:52.070Z,99.68
2022-11-24T02:43:52.058Z,99.99
2022-11-24T02:44:52.110Z,99.84
2022-11-24T02:45:52.108Z,99.99
2022-11-24T02:46:52.038Z,99.99
2022-11-24T02:47:52.041Z,99.99
2022-11-24T02:48:52.023Z,99.99
2022-11-24T02:49:52.026Z,99.99
2022-11-24T02:50:52.023Z,99.99
2022-11-24T02:51:52.010Z,99.99
2022-11-24T02:52:52.011Z,99.99
2022-11-24T02:53:51.993Z,99.99
2022-11-24T02:54:51.979Z,99.99
2022-11-24T02:55:52.042Z,99.99
2022-11-24T02:56:51.971Z,99.99
2022-11-24T02:57:51.989Z,99.99
2022-11-24T02:58:51.964Z,99.99
2022-11-24T02:59:51.948Z,99.99
2022-11-24T03:00:51.948Z,99.99
2022-11-24T03:01:51.991Z,99.99
2022-11-24T03:02:51.968Z,99.99
2022-11-24T03:03:51.926Z,99.99
2022-11-24T03:04:51.923Z,99.99
2022-11-24T03:05:51.910Z,99.99
2022-11-24T03:06:51.915Z,99.99
2022-11-24T03:07:51.930Z,99.99
2022-11-24T03:08:51.915Z,99.99
2022-11-24T03:09:51.887Z,99.99
2022-11-24T03:10:51.882Z,99.99
2022-11-24T03:11:51.863Z,99.99
2022-11-24T03:12:51.871Z,99.99
2022-11-24T03:13:51.874Z,99.99
2022-11-24T03:14:51.846Z,99.99
2022-11-24T03:15:51.928Z,99.99
2022-11-24T03:16:51.839Z,99.99
2022-11-24T03:17:51.829Z,99.99
2022-11-24T03:18:51.831Z,99.99
2022-11-24T03:19:51.839Z,99.99
2022-11-24T03:20:51.819Z,99.99
2022-11-24T03:21:51.816Z,99.99
2022-11-24T03:22:51.803Z,99.99
2022-11-24T03:23:51.795Z,99.99
2022-11-24T03:24:51.793Z,99.99
2022-11-24T03:25:51.786Z,99.99
2022-11-24T03:26:51.789Z,99.99
2022-11-24T03:27:51.757Z,99.99
2022-11-24T03:28:51.768Z,99.99
2022-11-24T03:29:51.764Z,99.99
2022-11-24T03:30:51.799Z,99.99
2022-11-24T03:31:51.748Z,99.99
2022-11-24T03:32:51.742Z,99.99
2022-11-24T03:33:51.720Z,99.99
2022-11-24T03:34:51.711Z,99.99
2022-11-24T03:35:51.718Z,99.99
2022-11-24T03:36:51.708Z,99.99
2022-11-24T03:37:51.723Z,99.99
2022-11-24T03:38:51.696Z,99.99
2022-11-24T03:39:51.684Z,99.99
2022-11-24T03:40:51.679Z,99.99
2022-11-24T03:41:51.681Z,99.99
2022-11-24T03:42:51.694Z,99.99
2022-11-24T03:43:51.657Z,99.84
2022-11-24T03:44:51.659Z,99.84
2022-11-24T03:45:51.651Z,99.99
2022-11-24T03:46:51.643Z,99.99
2022-11-24T03:47:51.640Z,99.99
2022-11-24T03:48:51.648Z,99.99
2022-11-24T03:49:51.620Z,99.99
2022-11-24T03:50:51.647Z,99.99
2022-11-24T03:51:51.615Z,99.99
2022-11-24T03:52:51.600Z,99.99
2022-11-24T03:53:51.606Z,99.94
2022-11-24T03:54:51.591Z,99.99
2022-11-24T03:55:51.608Z,99.99
2022-11-24T03:56:51.571Z,99.99
2022-11-24T03:57:51.570Z,99.99
2022-11-24T03:58:51.604Z,99.99
2022-11-24T03:59:51.561Z,99.99
2022-11-24T04:00:51.556Z,99.99
2022-11-24T04:01:51.593Z,99.99
2022-11-24T04:02:51.602Z,99.99
2022-11-24T04:03:51.532Z,99.99
2022-11-24T04:04:51.516Z,99.99
2022-11-24T04:05:51.511Z,99.99
2022-11-24T04:06:51.534Z,99.99
2022-11-24T04:07:51.536Z,99.99
2022-11-24T04:08:51.493Z,99.99
2022-11-24T04:09:51.500Z,99.99
2022-11-24T04:10:51.494Z,99.99
2022-11-24T04:11:51.476Z,99.99
2022-11-24T04:12:51.482Z,99.99
2022-11-24T04:13:51.480Z,99.99
2022-11-24T04:14:51.440Z,99.99
2022-11-24T04:15:51.481Z,99.99
2022-11-24T04:16:51.440Z,99.99
2022-11-24T04:17:51.424Z,99.99
2022-11-24T04:18:51.448Z,99.99
2022-11-24T04:19:51.419Z,99.99
2022-11-24T04:20:51.410Z,99.99
2022-11-24T04:21:51.422Z,99.99
2022-11-24T04:22:51.507Z,99.99
2022-11-24T04:23:51.394Z,99.99
2022-11-24T04:24:51.408Z,99.99
2022-11-24T04:25:51.396Z,99.99
2022-11-24T04:26:51.375Z,99.99
2022-11-24T04:27:51.368Z,99.99
2022-11-24T04:28:51.368Z,99.99
2022-11-24T04:29:51.360Z,99.99
2022-11-24T04:30:51.391Z,99.99
2022-11-24T04:31:51.394Z,99.99
2022-11-24T04:32:51.336Z,99.99
2022-11-24T04:33:51.332Z,99.99
2022-11-24T04:34:51.341Z,99.99
2022-11-24T04:35:51.328Z,99.99
2022-11-24T04:36:51.311Z,99.99
2022-11-24T04:37:51.307Z,99.99
2022-11-24T04:39:19.698Z,99.99
2022-11-24T04:39:52.307Z,99.99
2022-11-24T04:40:51.287Z,99.99
2022-11-24T04:41:51.273Z,99.99
2022-11-24T04:42:51.276Z,99.99
2022-11-24T04:43:51.267Z,99.99
2022-11-24T04:44:51.255Z,99.99
2022-11-24T04:45:51.256Z,99.99
2022-11-24T04:46:51.423Z,99.99
2022-11-24T04:47:51.234Z,99.99
2022-11-24T04:48:51.221Z,99.99
2022-11-24T04:49:51.230Z,99.99
2022-11-24T04:50:51.220Z,99.99
2022-11-24T04:51:51.195Z,99.99
2022-11-24T04:52:51.203Z,99.99
2022-11-24T04:53:51.200Z,99.99
2022-11-24T04:54:51.192Z,99.99
2022-11-24T04:55:51.202Z,99.99
2022-11-24T04:56:51.177Z,99.99
2022-11-24T04:57:51.159Z,99.99
2022-11-24T04:58:51.163Z,99.99
2022-11-24T04:59:51.163Z,99.99
2022-11-24T05:00:51.163Z,99.99
2022-11-24T05:01:51.255Z,99.99
2022-11-24T05:02:51.139Z,99.99
2022-11-24T05:03:51.177Z,99.99
2022-11-24T05:04:51.119Z,99.99
2022-11-24T05:05:51.124Z,99.99
2022-11-24T05:06:51.132Z,99.99
2022-11-24T05:07:51.128Z,99.99
2022-11-24T05:08:51.099Z,99.99
2022-11-24T05:09:59.343Z,99.99
2022-11-24T05:10:53.086Z,99.99
2022-11-24T05:11:51.079Z,99.99
2022-11-24T05:12:51.458Z,99.99
2022-11-24T05:13:52.056Z,99.99
2022-11-24T05:14:51.062Z,99.99
2022-11-24T05:15:51.099Z,99.99
2022-11-24T05:16:51.027Z,99.99
2022-11-24T05:17:51.043Z,99.99
2022-11-24T05:18:51.040Z,99.99
2022-11-24T05:19:51.030Z,99.99
2022-11-24T05:20:51.011Z,99.99
2022-11-24T05:21:51.011Z,99.99
2022-11-24T05:22:51.008Z,99.99
2022-11-24T05:23:50.992Z,99.99
2022-11-24T05:24:51.005Z,99.99
2022-11-24T05:25:50.982Z,99.99
2022-11-24T05:26:50.977Z,99.99
2022-11-24T05:27:50.971Z,99.99
2022-11-24T05:28:50.954Z,99.99
2022-11-24T05:29:50.955Z,99.99
2022-11-24T05:30:50.947Z,99.99
2022-11-24T05:31:50.968Z,99.99
2022-11-24T05:32:50.929Z,99.99
2022-11-24T05:33:50.928Z,99.99
2022-11-24T05:34:50.952Z,99.99
2022-11-24T05:35:50.912Z,99.99
2022-11-24T05:36:50.908Z,99.99
2022-11-24T05:37:50.903Z,99.99
2022-11-24T05:38:50.891Z,99.99
2022-11-24T05:39:50.895Z,99.99
2022-11-24T05:40:50.875Z,99.99
2022-11-24T05:41:50.887Z,99.99
2022-11-24T05:42:50.868Z,99.99
2022-11-24T05:43:50.846Z,99.99
2022-11-24T05:44:50.852Z,99.99
2022-11-24T05:45:50.843Z,99.99
2022-11-24T05:46:50.892Z,99.99
2022-11-24T05:47:50.849Z,99.99
2022-11-24T05:48:50.819Z,99.99
2022-11-24T05:49:50.824Z,99.99
2022-11-24T05:50:50.807Z,99.99
2022-11-24T05:51:50.831Z,99.99
2022-11-24T05:52:50.799Z,99.99
2022-11-24T05:53:50.796Z,99.99
2022-11-24T05:54:50.796Z,99.99
2022-11-24T05:55:50.783Z,99.99
2022-11-24T05:56:50.773Z,99.99
2022-11-24T05:57:50.780Z,99.99
2022-11-24T05:58:50.761Z,99.99
2022-11-24T05:59:50.751Z,99.99
2022-11-24T06:00:50.773Z,99.99
2022-11-24T06:01:50.851Z,99.99
2022-11-24T06:02:50.885Z,99.99
2022-11-24T06:03:50.726Z,99.99
2022-11-24T06:04:50.718Z,99.99
2022-11-24T06:05:50.710Z,99.99
2022-11-24T06:06:50.708Z,99.99
2022-11-24T06:07:50.757Z,99.99
2022-11-24T06:08:50.682Z,99.99
2022-11-24T06:09:50.678Z,99.99
2022-11-24T06:10:50.671Z,99.99
2022-11-24T06:11:50.669Z,99.99
2022-11-24T06:12:50.759Z,99.99
2022-11-24T06:13:50.710Z,99.99
2022-11-24T06:14:50.648Z,99.99
2022-11-24T06:15:50.641Z,99.99
2022-11-24T06:16:50.677Z,99.99
2022-11-24T06:17:50.640Z,99.99
2022-11-24T06:18:50.629Z,99.99
2022-11-24T06:19:50.623Z,99.99
2022-11-24T06:21:09.801Z,99.99
2022-11-24T06:21:52.603Z,99.99
2022-11-24T06:22:50.594Z,99.99
2022-11-24T06:23:50.603Z,99.99
2022-11-24T06:24:50.581Z,99.99
2022-11-24T06:25:51.680Z,99.99
2022-11-24T06:26:51.571Z,99.99
2022-11-24T06:27:50.575Z,99.99
2022-11-24T06:28:50.554Z,99.99
2022-11-24T06:29:50.548Z,99.99
2022-11-24T06:30:50.588Z,99.99
2022-11-24T06:31:50.596Z,99.99
2022-11-24T06:32:50.530Z,99.99
2022-11-24T06:33:50.533Z,99.99
2022-11-24T06:34:50.525Z,99.99
2022-11-24T06:35:50.534Z,99.99
2022-11-24T06:36:50.507Z,99.99
2022-11-24T06:37:50.502Z,99.99
2022-11-24T06:38:50.507Z,99.99
2022-11-24T06:39:50.490Z,99.99
2022-11-24T06:40:50.518Z,99.99
2022-11-24T06:41:50.477Z,99.99
2022-11-24T06:42:50.472Z,99.99
2022-11-24T06:43:50.468Z,99.99
2022-11-24T06:44:50.465Z,99.99
2022-11-24T06:45:50.525Z,99.99
2022-11-24T06:46:50.462Z,99.99
2022-11-24T06:47:50.434Z,99.99
2022-11-24T06:48:50.442Z,99.99
2022-11-24T06:49:50.431Z,99.99
2022-11-24T06:50:50.431Z,99.99
2022-11-24T06:51:50.411Z,99.99
2022-11-24T06:52:50.397Z,99.99
2022-11-24T06:53:50.403Z,99.99
2022-11-24T06:54:50.401Z,99.99
2022-11-24T06:55:50.381Z,99.99
2022-11-24T06:56:50.378Z,99.99
2022-11-24T06:57:50.378Z,99.99
2022-11-24T06:58:50.383Z,99.99
2022-11-24T06:59:50.355Z,99.99
2022-11-24T07:00:50.378Z,99.99
2022-11-24T07:01:50.347Z,99.99
2022-11-24T07:02:50.392Z,99.99
2022-11-24T07:03:50.365Z,99.99
2022-11-24T07:04:50.327Z,99.99
2022-11-24T07:05:50.314Z,99.99
2022-11-24T07:06:50.307Z,99.99
2022-11-24T07:07:51.058Z,99.99
2022-11-24T07:08:50.298Z,99.99
2022-11-24T07:09:50.307Z,99.99
2022-11-24T07:10:50.288Z,99.99
2022-11-24T07:11:50.285Z,99.99
2022-11-24T07:12:50.270Z,99.99
2022-11-24T07:13:53.850Z,99.99
2022-11-24T07:14:50.273Z,99.99
2022-11-24T07:15:50.255Z,99.99
2022-11-24T07:16:50.303Z,99.99
2022-11-24T07:17:50.238Z,99.99
2022-11-24T07:18:50.222Z,99.99
2022-11-24T07:19:50.231Z,99.99
2022-11-24T07:20:50.246Z,99.99
2022-11-24T07:21:50.216Z,99.99
2022-11-24T07:22:50.200Z,99.99
2022-11-24T07:23:50.189Z,99.99
2022-11-24T07:24:50.191Z,99.99
2022-11-24T07:25:50.199Z,99.99
2022-11-24T07:26:50.184Z,99.99
2022-11-24T07:27:50.175Z,99.99
2022-11-24T07:28:50.162Z,99.99
2022-11-24T07:29:50.155Z,99.99
2022-11-24T07:30:50.179Z,99.99
2022-11-24T07:31:50.273Z,99.99
2022-11-24T07:32:50.142Z,99.99
2022-11-24T07:33:50.134Z,99.99
2022-11-24T07:34:50.119Z,99.99
2022-11-24T07:35:50.130Z,99.99
2022-11-24T07:36:50.120Z,99.99
2022-11-24T07:37:50.904Z,99.99
2022-11-24T07:38:50.115Z,99.99
2022-11-24T07:39:50.094Z,99.99
2022-11-24T07:40:50.091Z,99.99
2022-11-24T07:41:50.075Z,99.99
2022-11-24T07:42:50.075Z,99.99
2022-11-24T07:43:50.092Z,99.99
2022-11-24T07:44:50.055Z,99.99
2022-11-24T07:45:50.101Z,99.85
2022-11-24T07:46:50.056Z,99.99
2022-11-24T07:47:50.029Z,99.99
2022-11-24T07:48:50.031Z,99.95
2022-11-24T07:49:50.046Z,99.95
2022-11-24T07:50:55.449Z,99.99
2022-11-24T07:51:52.017Z,99.99
2022-11-24T07:52:50.018Z,99.95
2022-11-24T07:53:50.018Z,99.64
2022-11-24T07:54:50.019Z,99.95
2022-11-24T07:55:49.992Z,99.95
2022-11-24T07:56:49.993Z,99.74
2022-11-24T07:57:49.977Z,99.95
2022-11-24T07:58:53.012Z,99.85
2022-11-24T07:59:50.976Z,99.99
2022-11-24T08:00:49.960Z,99.74
2022-11-24T08:01:50.011Z,99.99
2022-11-24T08:02:49.949Z,99.99
2022-11-24T08:03:49.994Z,99.99
2022-11-24T08:04:49.928Z,99.99
2022-11-24T08:06:16.066Z,99.99
2022-11-24T08:06:51.909Z,99.99
2022-11-24T08:07:49.940Z,99.49
2022-11-24T08:08:49.904Z,98.97
2022-11-24T08:09:49.916Z,98.67
2022-11-24T08:10:49.909Z,99.49
2022-11-24T08:11:49.901Z,99.70
2022-11-24T08:12:49.875Z,99.08
2022-11-24T08:13:49.885Z,98.77
2022-11-24T08:14:49.888Z,98.88
2022-11-24T08:15:49.859Z,99.70
2022-11-24T08:16:49.892Z,99.99
2022-11-24T08:17:49.852Z,99.29
2022-11-24T08:18:49.840Z,99.18
2022-11-24T08:19:49.864Z,98.67
2022-11-24T08:20:49.847Z,99.08
2022-11-24T08:21:49.827Z,98.97
2022-11-24T08:22:49.823Z,98.46
2022-11-24T08:23:49.809Z,98.97
2022-11-24T08:24:49.802Z,98.77
2022-11-24T08:25:52.935Z,98.93
2022-11-24T08:26:50.797Z,98.62
2022-11-24T08:27:49.780Z,98.97
2022-11-24T08:28:49.781Z,98.62
2022-11-24T08:29:49.778Z,98.67
2022-11-24T08:30:49.782Z,98.57
2022-11-24T08:31:49.794Z,98.67
2022-11-24T08:32:49.757Z,98.62
2022-11-24T08:33:49.740Z,98.88
2022-11-24T08:34:49.738Z,98.93
2022-11-24T08:35:49.723Z,98.57
2022-11-24T08:36:49.753Z,98.67
2022-11-24T08:37:49.720Z,98.77
2022-11-24T08:38:49.729Z,98.88
2022-11-24T08:39:49.699Z,98.67
2022-11-24T08:40:49.693Z,98.67
2022-11-24T08:41:49.706Z,99.04
2022-11-24T08:42:49.682Z,99.04
2022-11-24T08:43:49.696Z,98.77
2022-11-24T08:44:49.664Z,98.83
2022-11-24T08:45:49.690Z,98.83
2022-11-24T08:46:49.654Z,98.42
2022-11-24T08:47:49.650Z,98.11
2022-11-24T08:48:49.654Z,98.21
2022-11-24T08:49:49.664Z,98.21
2022-11-24T08:50:49.625Z,98.00
2022-11-24T08:51:49.619Z,97.90
2022-11-24T08:52:49.604Z,98.21
2022-11-24T08:53:49.606Z,97.44
2022-11-24T08:54:49.612Z,97.60
2022-11-24T08:55:49.589Z,98.00
2022-11-24T08:56:49.592Z,97.75
2022-11-24T08:57:50.577Z,97.60
2022-11-24T08:58:49.630Z,97.55
2022-11-24T08:59:49.569Z,97.80
2022-11-24T09:00:49.557Z,97.75
2022-11-24T09:01:49.664Z,97.69
2022-11-24T09:02:49.547Z,98.42
2022-11-24T09:03:51.037Z,98.52
2022-11-24T09:04:50.543Z,98.37
2022-11-24T09:05:52.191Z,97.75
2022-11-24T09:06:50.520Z,98.16
2022-11-24T09:07:49.585Z,97.65
2022-11-24T09:08:49.504Z,97.44
2022-11-24T09:09:49.509Z,97.90
2022-11-24T09:10:49.508Z,98.21
2022-11-24T09:11:49.481Z,97.55
2022-11-24T09:12:49.474Z,97.75
2022-11-24T09:13:49.495Z,98.06
2022-11-24T09:14:49.469Z,98.06
2022-11-24T09:15:49.452Z,98.16
2022-11-24T09:16:49.480Z,97.96
2022-11-24T09:17:49.445Z,98.16
2022-11-24T09:18:49.466Z,98.27
2022-11-24T09:19:49.440Z,98.27
2022-11-24T09:20:49.437Z,97.96
2022-11-24T09:21:49.424Z,98.02
2022-11-24T09:22:49.412Z,97.81
2022-11-24T09:23:49.421Z,98.16
2022-11-24T09:24:49.411Z,97.96
2022-11-24T09:25:49.397Z,98.37
2022-11-24T09:26:49.388Z,98.22
2022-11-24T09:27:49.392Z,98.33
2022-11-24T09:28:49.380Z,97.71
2022-11-24T09:29:49.372Z,97.61
2022-11-24T09:30:49.416Z,97.45
2022-11-24T09:31:49.349Z,97.36
2022-11-24T09:32:49.348Z,97.15
2022-11-24T09:33:49.335Z,96.53
2022-11-24T09:34:49.353Z,96.33
2022-11-24T09:35:50.326Z,96.02
2022-11-24T09:36:49.307Z,96.33
2022-11-24T09:37:49.305Z,96.28
2022-11-24T09:38:49.303Z,96.39
2022-11-24T09:39:49.300Z,96.48
2022-11-24T09:40:51.614Z,96.12
2022-11-24T09:41:49.287Z,96.33
2022-11-24T09:42:53.374Z,96.43
2022-11-24T09:43:50.273Z,96.94
2022-11-24T09:44:49.261Z,96.84
2022-11-24T09:46:05.151Z,97.97
2022-11-24T09:46:51.298Z,97.41
2022-11-24T09:47:49.234Z,97.87
2022-11-24T09:48:49.233Z,97.25
2022-11-24T09:49:51.493Z,97.66
2022-11-24T09:50:50.237Z,97.45
2022-11-24T09:51:49.224Z,98.28
2022-11-24T09:52:49.216Z,97.87
2022-11-24T09:53:49.205Z,98.07
2022-11-24T09:54:49.197Z,98.28
2022-11-24T09:55:49.190Z,98.59
2022-11-24T09:56:49.182Z,97.97
2022-11-24T09:57:49.197Z,97.77
2022-11-24T09:58:49.172Z,97.77
2022-11-24T09:59:49.161Z,97.66
2022-11-24T10:00:49.153Z,97.97
2022-11-24T10:01:49.175Z,97.77
2022-11-24T10:02:49.136Z,97.56
2022-11-24T10:03:49.141Z,97.82
2022-11-24T10:04:49.172Z,97.15
2022-11-24T10:05:49.126Z,97.52
2022-11-24T10:06:49.150Z,97.41
2022-11-24T10:07:49.111Z,97.37
2022-11-24T10:08:49.094Z,97.06
2022-11-24T10:09:49.095Z,96.34
2022-11-24T10:10:49.073Z,96.44
2022-11-24T10:11:49.066Z,96.30
2022-11-24T10:12:49.057Z,95.27
2022-11-24T10:13:49.070Z,95.47
2022-11-24T10:14:49.063Z,94.92
2022-11-24T10:15:49.086Z,94.77
2022-11-24T10:16:50.799Z,94.77
2022-11-24T10:17:49.041Z,94.42
2022-11-24T10:18:49.018Z,93.55
2022-11-24T10:19:49.011Z,92.28
2022-11-24T10:20:49.009Z,92.19
2022-11-24T10:21:48.998Z,91.27
2022-11-24T10:22:48.985Z,87.41
2022-11-24T10:23:48.966Z,84.14
2022-11-24T10:24:48.975Z,84.22
2022-11-24T10:25:48.990Z,85.10
2022-11-24T10:26:48.946Z,84.12
2022-11-24T10:27:48.953Z,84.53
2022-11-24T10:28:48.949Z,85.00
2022-11-24T10:29:48.933Z,82.51
2022-11-24T10:30:48.976Z,82.39
2022-11-24T10:31:48.923Z,83.71
2022-11-24T10:32:48.917Z,83.81
2022-11-24T10:33:48.910Z,83.95
2022-11-24T10:34:48.902Z,84.50
2022-11-24T10:35:48.890Z,84.81
2022-11-24T10:36:48.905Z,85.12
2022-11-24T10:37:48.885Z,85.53
2022-11-24T10:38:48.870Z,86.65
2022-11-24T10:39:48.855Z,84.91
2022-11-24T10:40:57.089Z,84.30
2022-11-24T10:41:50.849Z,84.33
2022-11-24T10:42:48.842Z,83.29
2022-11-24T10:43:48.850Z,79.06
2022-11-24T10:44:48.817Z,77.47
2022-11-24T10:45:49.843Z,72.31
2022-11-24T10:46:48.914Z,72.17
2022-11-24T10:47:48.816Z,70.15
2022-11-24T10:48:48.797Z,68.30
2022-11-24T10:49:48.785Z,69.07
2022-11-24T10:50:48.778Z,68.90
2022-11-24T10:51:48.857Z,69.71
2022-11-24T10:52:48.784Z,71.50
2022-11-24T10:53:48.749Z,72.28
2022-11-24T10:54:48.749Z,74.35
2022-11-24T10:55:48.747Z,77.71
2022-11-24T10:56:48.741Z,75.95
2022-11-24T10:57:48.754Z,76.76
2022-11-24T10:58:48.737Z,74.82
2022-11-24T10:59:48.726Z,76.83
2022-11-24T11:00:48.712Z,77.17
2022-11-24T11:01:48.883Z,76.53
2022-11-24T11:02:48.787Z,77.10
2022-11-24T11:03:48.705Z,76.04
2022-11-24T11:04:48.688Z,76.08
2022-11-24T11:05:48.674Z,76.93
2022-11-24T11:06:48.670Z,77.13
2022-11-24T11:07:48.713Z,75.67
2022-11-24T11:08:48.708Z,73.67
2022-11-24T11:09:48.657Z,73.02
2022-11-24T11:10:48.655Z,70.72
2022-11-24T11:11:48.651Z,69.07
2022-11-24T11:12:48.648Z,66.67
2022-11-24T11:13:48.646Z,69.07
2022-11-24T11:14:48.626Z,67.75
2022-11-24T11:15:48.627Z,69.68
2022-11-24T11:16:48.622Z,67.47
2022-11-24T11:17:48.605Z,69.13
2022-11-24T11:18:48.598Z,71.20
2022-11-24T11:19:50.016Z,68.08
2022-11-24T11:20:49.588Z,68.25
2022-11-24T11:21:48.565Z,70.72
2022-11-24T11:22:48.565Z,70.65
2022-11-24T11:23:48.573Z,70.48
2022-11-24T11:24:48.573Z,72.45
2022-11-24T11:25:48.538Z,72.48
2022-11-24T11:26:48.537Z,72.62
2022-11-24T11:27:48.550Z,72.72
2022-11-24T11:28:48.539Z,74.69
2022-11-24T11:34:09.537Z,77.72
2022-11-24T11:34:50.515Z,78.02
2022-11-24T11:35:48.485Z,77.68
2022-11-24T11:36:48.472Z,77.92
2022-11-24T11:37:48.460Z,78.37
2022-11-24T11:38:48.470Z,78.00
2022-11-24T11:39:49.215Z,78.81
2022-11-24T11:40:49.479Z,79.22
2022-11-24T11:41:48.438Z,79.05
2022-11-24T11:43:03.920Z,79.80
2022-11-24T11:43:50.479Z,79.91
2022-11-24T11:44:48.414Z,78.48
2022-11-24T11:45:48.438Z,78.27
2022-11-24T11:46:48.457Z,78.78
2022-11-24T11:47:48.407Z,79.13
2022-11-24T11:48:48.387Z,78.72
2022-11-24T11:49:48.381Z,79.33
2022-11-24T11:51:21.111Z,79.64
2022-11-24T11:51:50.364Z,78.92
2022-11-24T11:52:48.363Z,76.70
2022-11-24T11:53:48.349Z,72.31
2022-11-24T11:54:48.340Z,69.33
2022-11-24T11:55:50.130Z,67.27
2022-11-24T11:56:49.367Z,63.93
2022-11-24T11:57:48.328Z,62.88
2022-11-24T11:58:48.304Z,64.11
2022-11-24T11:59:48.308Z,61.65
2022-11-24T12:00:48.291Z,61.72
2022-11-24T12:01:48.280Z,63.73
2022-11-24T12:02:53.058Z,63.69
2022-11-24T12:03:50.412Z,65.17
2022-11-24T12:04:48.269Z,65.57
2022-11-24T12:05:48.267Z,68.38
2022-11-24T12:06:48.257Z,70.07
2022-11-24T12:07:48.321Z,71.33
2022-11-24T12:09:18.781Z,71.70
2022-11-24T12:09:50.235Z,72.52
2022-11-24T12:10:48.227Z,73.16
2022-11-24T12:11:48.226Z,73.50
2022-11-24T12:12:48.240Z,73.84
2022-11-24T12:13:48.212Z,75.62
2022-11-24T12:14:48.195Z,76.64
2022-11-24T12:15:48.244Z,77.15
2022-11-24T12:16:48.188Z,76.84
2022-11-24T12:17:48.175Z,77.19
2022-11-24T12:18:57.557Z,76.57
2022-11-24T12:19:50.203Z,76.78
2022-11-24T12:20:48.162Z,75.04
2022-11-24T12:21:48.157Z,75.96
2022-11-24T12:22:48.149Z,76.74
2022-11-24T12:23:48.132Z,76.40
2022-11-24T12:24:48.197Z,74.97
2022-11-24T12:25:48.117Z,75.10
2022-11-24T12:26:48.121Z,74.35
2022-11-24T12:27:48.106Z,72.99
2022-11-24T12:28:48.110Z,72.72
2022-11-24T12:29:48.087Z,72.52
2022-11-24T12:30:48.090Z,72.41
2022-11-24T12:31:48.148Z,72.52
2022-11-24T12:32:48.075Z,74.29
2022-11-24T12:33:52.297Z,74.38
2022-11-24T12:34:49.087Z,74.29
2022-11-24T12:35:48.075Z,74.63
2022-11-24T12:36:48.038Z,74.56
2022-11-24T12:37:48.031Z,76.12
2022-11-24T12:38:48.027Z,76.64
2022-11-24T12:39:48.031Z,76.74
2022-11-24T12:40:48.025Z,78.11
2022-11-24T12:41:48.004Z,78.11
2022-11-24T12:42:48.000Z,78.41
2022-11-24T12:43:47.994Z,78.07
2022-11-24T12:44:47.987Z,78.41
2022-11-24T12:45:47.983Z,78.31
2022-11-24T12:46:48.011Z,78.31
2022-11-24T12:47:47.963Z,76.98
2022-11-24T12:48:47.943Z,78.24
2022-11-24T12:49:48.951Z,78.14
2022-11-24T12:50:47.958Z,78.45
2022-11-24T12:51:47.939Z,78.65
2022-11-24T12:52:47.926Z,78.45
2022-11-24T12:53:47.919Z,78.14
2022-11-24T12:54:47.916Z,79.23
2022-11-24T12:55:47.911Z,78.20
2022-11-24T12:56:47.897Z,78.31